createdAt,value
2022-08-05T00:00:17.514Z,66.30
2022-08-05T00:06:02.866Z,65.70
2022-08-05T00:11:00.864Z,65.50
2022-08-05T00:13:38.730Z,65.30
2022-08-05T00:16:09.429Z,65.30
2022-08-05T00:18:39.579Z,65.20
2022-08-05T00:21:08.445Z,65.10
2022-08-05T00:28:52.175Z,65.20
2022-08-05T00:37:10.690Z,66.20
2022-08-05T00:39:44.400Z,66.40
2022-08-05T00:42:32.884Z,65.60
2022-08-05T00:45:02.339Z,65.60
2022-08-05T00:47:53.403Z,66.00
2022-08-05T00:50:18.763Z,67.20
2022-08-05T00:52:49.132Z,68.20
2022-08-05T00:55:17.284Z,65.50
2022-08-05T00:57:58.211Z,66.50
2022-08-05T01:00:29.148Z,66.10
2022-08-05T01:02:57.658Z,66.50
2022-08-05T01:05:29.057Z,66.40
2022-08-05T01:08:41.929Z,66.50
2022-08-05T01:10:52.332Z,67.00
2022-08-05T01:13:27.516Z,66.80
2022-08-05T01:16:28.865Z,69.70
2022-08-05T01:19:03.626Z,66.10
2022-08-05T01:21:51.827Z,69.60
2022-08-05T01:24:47.835Z,66.00
2022-08-05T01:27:32.876Z,66.00
2022-08-05T01:30:05.352Z,67.00
2022-08-05T01:32:48.248Z,65.90
2022-08-05T01:35:51.343Z,66.60
2022-08-05T01:38:09.509Z,66.70
2022-08-05T01:40:53.897Z,66.70
2022-08-05T01:43:24.158Z,67.60
2022-08-05T01:45:56.262Z,66.40
2022-08-05T01:48:26.001Z,67.50
2022-08-05T01:50:56.973Z,68.60
2022-08-05T01:53:54.528Z,68.10
2022-08-05T01:58:10.131Z,70.30
2022-08-05T01:59:09.998Z,68.50
2022-08-05T02:01:40.626Z,67.60
2022-08-05T02:04:10.500Z,71.00
2022-08-05T02:06:39.352Z,67.50
2022-08-05T02:09:08.214Z,68.20
2022-08-05T02:11:48.009Z,70.70
2022-08-05T02:14:26.829Z,68.50
2022-08-05T02:16:57.514Z,67.50
2022-08-05T02:19:34.432Z,68.20
2022-08-05T02:22:08.327Z,68.60
2022-08-05T02:24:39.893Z,68.50
2022-08-05T02:27:11.375Z,68.50
2022-08-05T02:29:58.973Z,68.60
2022-08-05T02:32:31.851Z,69.20
2022-08-05T02:35:13.758Z,69.10
2022-08-05T02:37:46.515Z,69.00
2022-08-05T02:40:21.623Z,68.80
2022-08-05T02:42:52.537Z,68.10
2022-08-05T02:45:23.846Z,70.70
2022-08-05T02:48:07.609Z,68.80
2022-08-05T02:50:44.066Z,68.30
2022-08-05T02:53:19.075Z,69.00
2022-08-05T02:55:54.569Z,69.10
2022-08-05T02:58:26.549Z,69.00
2022-08-05T03:00:56.706Z,69.20
2022-08-05T03:03:34.248Z,69.30
2022-08-05T03:06:55.890Z,69.20
2022-08-05T03:09:06.439Z,69.40
2022-08-05T03:11:53.470Z,70.60
2022-08-05T03:14:23.605Z,69.90
2022-08-05T03:16:51.876Z,69.80
2022-08-05T03:19:33.409Z,70.00
2022-08-05T03:22:04.731Z,70.30
2022-08-05T03:24:33.715Z,70.60
2022-08-05T03:27:03.206Z,72.20
2022-08-05T03:29:45.269Z,70.30
2022-08-05T03:32:31.032Z,70.10
2022-08-05T03:35:00.901Z,70.00
2022-08-05T03:37:28.835Z,69.90
2022-08-05T03:40:01.506Z,69.40
2022-08-05T03:42:32.859Z,70.30
2022-08-05T03:45:22.010Z,69.90
2022-08-05T03:47:51.165Z,70.20
2022-08-05T03:50:21.380Z,69.60
2022-08-05T03:55:51.250Z,69.70
2022-08-05T03:56:09.888Z,72.30
2022-08-05T03:58:37.783Z,69.70
2022-08-05T04:01:13.134Z,70.60
2022-08-05T04:03:56.902Z,69.90
2022-08-05T04:06:35.760Z,70.80
2022-08-05T04:09:05.910Z,73.20
2022-08-05T04:11:47.216Z,72.40
2022-08-05T04:14:18.051Z,70.10
2022-08-05T04:16:46.293Z,70.30
2022-08-05T04:19:15.204Z,70.60
2022-08-05T04:22:10.080Z,71.30
2022-08-05T04:24:34.631Z,70.30
2022-08-05T04:27:02.562Z,70.60
2022-08-05T04:29:30.507Z,73.40
2022-08-05T04:32:00.912Z,70.80
2022-08-05T04:34:32.914Z,71.00
2022-08-05T04:37:04.900Z,70.60
2022-08-05T04:39:33.520Z,71.20
2022-08-05T04:42:03.684Z,71.10
2022-08-05T04:44:31.768Z,71.00
2022-08-05T04:46:59.805Z,71.10
2022-08-05T04:49:38.823Z,72.80
2022-08-05T04:52:27.606Z,70.60
2022-08-05T04:54:57.491Z,71.30
2022-08-05T04:57:28.593Z,70.80
2022-08-05T04:59:58.597Z,71.10
2022-08-05T05:02:37.701Z,71.30
2022-08-05T05:05:17.054Z,71.30
2022-08-05T05:08:02.019Z,71.20
2022-08-05T05:10:30.716Z,72.70
2022-08-05T05:13:03.965Z,71.70
2022-08-05T05:15:57.134Z,71.60
2022-08-05T05:18:28.666Z,71.60
2022-08-05T05:20:59.338Z,71.60
2022-08-05T05:24:02.099Z,71.50
2022-08-05T05:26:17.578Z,71.70
2022-08-05T05:28:45.602Z,71.40
2022-08-05T05:31:13.618Z,71.40
2022-08-05T05:33:59.402Z,72.20
2022-08-05T05:36:29.959Z,72.70
2022-08-05T05:38:59.513Z,72.40
2022-08-05T05:41:40.857Z,73.00
2022-08-05T05:44:35.744Z,72.30
2022-08-05T05:46:58.606Z,73.80
2022-08-05T05:49:33.161Z,71.90
2022-08-05T05:52:06.033Z,71.70
2022-08-05T05:54:50.507Z,74.70
2022-08-05T05:57:19.501Z,71.10
2022-08-05T05:59:48.753Z,72.20
2022-08-05T06:02:16.972Z,71.90
2022-08-05T06:04:49.154Z,71.00
2022-08-05T06:07:17.317Z,71.30
2022-08-05T06:10:00.883Z,71.10
2022-08-05T06:12:32.607Z,71.30
2022-08-05T06:15:02.249Z,71.20
2022-08-05T06:17:31.041Z,71.50
2022-08-05T06:19:59.734Z,70.80
2022-08-05T06:22:29.589Z,70.60
2022-08-05T06:24:59.261Z,71.00
2022-08-05T06:28:12.677Z,70.30
2022-08-05T06:30:17.773Z,70.60
2022-08-05T06:32:50.725Z,72.10
2022-08-05T06:36:02.999Z,72.00
2022-08-05T06:38:11.253Z,70.00
2022-08-05T06:40:44.466Z,69.70
2022-08-05T06:43:57.412Z,68.90
2022-08-05T06:46:04.060Z,68.30
2022-08-05T06:48:53.402Z,67.80
2022-08-05T06:51:51.131Z,67.80
2022-08-05T06:54:19.564Z,67.70
2022-08-05T06:57:56.563Z,67.50
2022-08-05T06:59:48.583Z,67.40
2022-08-05T07:02:26.214Z,66.90
2022-08-05T07:04:57.481Z,69.50
2022-08-05T07:07:35.482Z,66.30
2022-08-05T07:10:14.834Z,67.90
2022-08-05T07:13:06.471Z,66.00
2022-08-05T07:16:01.723Z,66.40
2022-08-05T07:18:32.791Z,65.70
2022-08-05T07:21:05.529Z,65.50
2022-08-05T07:23:33.599Z,67.20
2022-08-05T07:26:04.400Z,66.10
2022-08-05T07:28:34.143Z,65.00
2022-08-05T07:31:02.151Z,64.70
2022-08-05T07:33:36.486Z,64.70
2022-08-05T07:36:20.195Z,64.00
2022-08-05T07:38:55.002Z,64.70
2022-08-05T07:42:13.563Z,64.30
2022-08-05T07:44:18.920Z,64.50
2022-08-05T07:46:48.255Z,64.10
2022-08-05T07:49:18.145Z,65.30
2022-08-05T07:51:53.863Z,65.80
2022-08-05T07:54:30.582Z,62.80
2022-08-05T07:57:22.694Z,62.80
2022-08-05T07:59:51.279Z,65.00
2022-08-05T08:02:19.287Z,63.90
2022-08-05T08:04:54.420Z,61.80
2022-08-05T08:07:23.418Z,60.50
2022-08-05T08:09:54.990Z,60.80
2022-08-05T08:12:35.103Z,57.80
2022-08-05T08:15:15.585Z,58.40
2022-08-05T08:17:49.647Z,59.10
2022-08-05T08:20:44.175Z,58.70
2022-08-05T08:24:00.024Z,57.30
2022-08-05T08:26:02.827Z,56.70
2022-08-05T08:28:36.394Z,56.10
2022-08-05T08:31:07.557Z,56.20
2022-08-05T08:33:38.145Z,55.30
2022-08-05T08:38:57.056Z,55.50
2022-08-05T08:41:51.045Z,55.20
2022-08-05T08:45:22.939Z,55.20
2022-08-05T08:47:47.215Z,54.90
2022-08-05T08:50:07.600Z,53.60
2022-08-05T08:52:53.126Z,53.90
2022-08-05T08:55:32.103Z,53.80
2022-08-05T08:58:12.986Z,53.20
2022-08-05T09:00:42.415Z,55.20
2022-08-05T09:03:12.554Z,54.30
2022-08-05T09:06:07.550Z,53.00
2022-08-05T09:08:32.404Z,53.40
2022-08-05T09:11:00.414Z,54.10
2022-08-05T09:13:31.803Z,52.40
2022-08-05T09:16:00.286Z,52.70
2022-08-05T09:18:29.640Z,51.80
2022-08-05T09:20:57.930Z,51.50
2022-08-05T09:23:28.908Z,52.60
2022-08-05T09:26:20.675Z,52.10
2022-08-05T09:28:50.329Z,51.50
2022-08-05T09:32:39.049Z,51.70
2022-08-05T09:34:10.476Z,51.40
2022-08-05T09:36:54.084Z,51.70
2022-08-05T09:39:27.778Z,51.20
2022-08-05T09:42:13.452Z,52.30
2022-08-05T09:44:50.583Z,50.20
2022-08-05T09:47:21.047Z,50.30
2022-08-05T09:50:00.576Z,49.20
2022-08-05T09:52:32.328Z,49.90
2022-08-05T09:55:06.339Z,46.80
2022-08-05T09:57:49.960Z,47.90
2022-08-05T10:00:24.668Z,49.40
2022-08-05T10:02:54.868Z,47.70
2022-08-05T10:05:32.744Z,48.80
2022-08-05T10:08:36.009Z,46.90
2022-08-05T10:10:54.113Z,47.50
2022-08-05T10:13:43.916Z,48.20
2022-08-05T10:16:34.202Z,47.40
2022-08-05T10:19:09.295Z,45.30
2022-08-05T10:21:40.150Z,46.10
2022-08-05T10:24:10.727Z,46.60
2022-08-05T10:26:51.922Z,46.50
2022-08-05T10:29:23.882Z,46.80
2022-08-05T10:35:46.692Z,47.10
2022-08-05T10:38:33.183Z,48.20
2022-08-05T10:41:14.480Z,45.90
2022-08-05T10:43:57.102Z,45.60
2022-08-05T10:46:44.684Z,45.10
2022-08-05T10:49:16.966Z,43.80
2022-08-05T10:51:48.626Z,44.80
2022-08-05T10:55:02.853Z,42.20
2022-08-05T10:57:33.926Z,43.40
2022-08-05T11:00:19.764Z,44.40
2022-08-05T11:03:23.012Z,43.50
2022-08-05T11:06:15.032Z,42.20
2022-08-05T11:09:31.896Z,42.90
2022-08-05T11:12:50.904Z,42.40
2022-08-05T11:16:00.623Z,42.70
2022-08-05T11:18:27.551Z,44.20
2022-08-05T11:20:59.021Z,41.90
2022-08-05T11:24:03.273Z,45.00
2022-08-05T11:26:32.172Z,40.00
2022-08-05T11:29:11.879Z,40.20
2022-08-05T11:31:53.882Z,38.60
2022-08-05T11:34:38.670Z,39.20
2022-08-05T11:38:29.105Z,38.70
2022-08-05T11:39:55.620Z,39.70
2022-08-05T11:42:37.939Z,39.70
2022-08-05T11:45:22.982Z,40.20
2022-08-05T11:47:55.293Z,40.00
2022-08-05T11:50:23.482Z,39.40
2022-08-05T11:52:57.676Z,40.00
2022-08-05T11:55:32.377Z,39.50
2022-08-05T11:58:08.557Z,39.00
2022-08-05T12:00:44.412Z,41.50
2022-08-05T12:03:29.194Z,39.40
2022-08-05T12:06:02.057Z,39.60
2022-08-05T12:08:32.665Z,40.40
2022-08-05T12:11:05.857Z,40.50
2022-08-05T12:13:48.403Z,40.80
2022-08-05T12:16:26.957Z,40.90
2022-08-05T12:18:55.464Z,42.60
2022-08-05T12:21:26.840Z,40.60
2022-08-05T12:24:05.085Z,40.50
2022-08-05T12:26:36.477Z,40.70
2022-08-05T12:29:05.817Z,39.80
2022-08-05T12:31:46.169Z,40.00
2022-08-05T12:34:20.604Z,40.30
2022-08-05T12:36:53.451Z,38.90
2022-08-05T12:39:22.044Z,39.70
2022-08-05T12:41:58.151Z,39.60
2022-08-05T12:44:33.648Z,41.60
2022-08-05T12:47:03.912Z,39.90
2022-08-05T12:50:04.814Z,40.50
2022-08-05T12:52:41.881Z,39.90
2022-08-05T12:56:34.341Z,38.50
2022-08-05T12:58:49.932Z,38.20
2022-08-05T13:02:01.159Z,40.60
2022-08-05T13:04:16.665Z,39.10
2022-08-05T13:06:52.035Z,39.40
2022-08-05T13:09:27.932Z,39.20
2022-08-05T13:12:03.900Z,39.40
2022-08-05T13:14:37.897Z,39.40
2022-08-05T13:17:11.151Z,40.50
2022-08-05T13:19:52.167Z,40.40
2022-08-05T13:22:28.491Z,40.20
2022-08-05T13:25:00.686Z,43.00
2022-08-05T13:27:35.594Z,41.50
2022-08-05T13:30:34.510Z,43.10
2022-08-05T13:33:01.155Z,41.30
2022-08-05T13:35:47.678Z,40.50
2022-08-05T13:38:30.878Z,41.40
2022-08-05T13:41:05.014Z,42.10
2022-08-05T13:43:45.035Z,41.10
2022-08-05T13:46:44.027Z,41.10
2022-08-05T13:49:12.741Z,41.00
2022-08-05T13:51:46.701Z,41.20
2022-08-05T13:54:16.447Z,42.10
2022-08-05T13:56:51.093Z,41.80
2022-08-05T13:59:24.167Z,43.30
2022-08-05T14:01:57.737Z,42.30
2022-08-05T14:04:49.598Z,44.50
2022-08-05T14:07:56.907Z,43.30
2022-08-05T14:10:12.160Z,41.90
2022-08-05T14:12:42.747Z,42.00
2022-08-05T14:16:07.071Z,40.90
2022-08-05T14:18:00.848Z,40.80
2022-08-05T14:20:29.564Z,40.70
2022-08-05T14:23:01.009Z,40.00
2022-08-05T14:25:30.826Z,39.90
2022-08-05T14:27:59.376Z,38.90
2022-08-05T14:30:28.699Z,38.40
2022-08-05T14:32:58.779Z,38.40
2022-08-05T14:35:36.314Z,37.70
2022-08-05T14:38:07.152Z,37.70
2022-08-05T14:40:55.320Z,37.00
2022-08-05T14:43:57.704Z,37.20
2022-08-05T14:46:12.644Z,38.60
2022-08-05T14:48:40.706Z,37.30
2022-08-05T14:51:09.725Z,37.30
2022-08-05T14:53:44.912Z,37.50
2022-08-05T14:56:13.426Z,37.60
2022-08-05T14:58:47.809Z,38.50
2022-08-05T15:01:47.112Z,38.20
2022-08-05T15:04:11.712Z,38.20
2022-08-05T15:06:40.422Z,38.20
2022-08-05T15:09:10.807Z,38.30
2022-08-05T15:11:51.405Z,37.90
2022-08-05T15:14:35.034Z,37.90
2022-08-05T15:17:44.582Z,37.70
2022-08-05T15:19:58.933Z,38.20
2022-08-05T15:22:28.400Z,38.00
2022-08-05T15:24:59.018Z,40.00
2022-08-05T15:27:32.048Z,39.80
2022-08-05T15:30:07.997Z,40.30
2022-08-05T15:32:39.258Z,40.50
2022-08-05T15:35:10.839Z,41.00
2022-08-05T15:38:34.455Z,41.20
2022-08-05T15:41:01.467Z,42.20
2022-08-05T15:43:20.373Z,40.60
2022-08-05T15:46:00.205Z,40.90
2022-08-05T15:48:29.991Z,40.20
2022-08-05T15:51:01.523Z,40.20
2022-08-05T15:53:38.552Z,40.00
2022-08-05T15:56:23.185Z,40.20
2022-08-05T15:58:51.184Z,39.80
2022-08-05T16:01:20.046Z,37.70
2022-08-05T16:03:50.497Z,37.90
2022-08-05T16:06:20.367Z,36.80
2022-08-05T16:08:51.074Z,37.80
2022-08-05T16:11:40.169Z,37.30
2022-08-05T16:14:17.306Z,37.60
2022-08-05T16:16:47.036Z,36.40
2022-08-05T16:19:25.520Z,36.00
2022-08-05T16:22:03.917Z,35.10
2022-08-05T16:24:41.922Z,35.40
2022-08-05T16:27:32.310Z,35.50
2022-08-05T16:30:26.097Z,35.80
2022-08-05T16:32:54.957Z,35.50
2022-08-05T16:35:28.380Z,35.40
2022-08-05T16:38:16.346Z,34.60
2022-08-05T16:40:55.019Z,34.60
2022-08-05T16:43:30.139Z,34.00
2022-08-05T16:46:03.897Z,35.40
2022-08-05T16:48:36.527Z,34.30
2022-08-05T16:51:09.157Z,33.10
2022-08-05T16:54:05.687Z,33.40
2022-08-05T16:56:27.834Z,33.80
2022-08-05T16:58:58.064Z,33.90
2022-08-05T17:01:53.028Z,33.40
2022-08-05T17:04:16.997Z,35.60
2022-08-05T17:06:53.326Z,34.80
2022-08-05T17:09:21.591Z,34.60
2022-08-05T17:11:55.973Z,34.70
2022-08-05T17:14:37.022Z,34.80
2022-08-05T17:17:06.799Z,34.60
2022-08-05T17:19:45.675Z,34.90
2022-08-05T17:22:25.034Z,34.80
2022-08-05T17:24:57.691Z,35.60
2022-08-05T17:27:27.552Z,35.90
2022-08-05T17:30:04.549Z,36.10
2022-08-05T17:32:40.103Z,36.50
2022-08-05T17:35:12.317Z,37.30
2022-08-05T17:37:45.323Z,37.80
2022-08-05T17:40:22.630Z,38.20
2022-08-05T17:42:52.976Z,38.60
2022-08-05T17:45:24.877Z,40.20
2022-08-05T17:47:56.089Z,39.30
2022-08-05T17:50:28.178Z,39.40
2022-08-05T17:52:59.685Z,40.50
2022-08-05T17:55:37.257Z,40.00
2022-08-05T17:58:09.560Z,39.90
2022-08-05T18:00:44.267Z,40.80
2022-08-05T18:03:28.095Z,40.80
2022-08-05T18:06:04.573Z,40.20
2022-08-05T18:08:33.881Z,40.10
2022-08-05T18:11:03.051Z,40.70
2022-08-05T18:13:36.842Z,40.80
2022-08-05T18:16:14.423Z,40.80
2022-08-05T18:18:47.821Z,42.30
2022-08-05T18:21:19.632Z,41.30
2022-08-05T18:23:49.227Z,44.00
2022-08-05T18:26:22.101Z,41.90
2022-08-05T18:28:57.412Z,42.00
2022-08-05T18:31:33.162Z,42.40
2022-08-05T18:34:06.004Z,45.10
2022-08-05T18:36:38.509Z,43.80
2022-08-05T18:39:22.638Z,43.10
2022-08-05T18:42:03.730Z,43.40
2022-08-05T18:44:51.389Z,43.20
2022-08-05T18:47:26.452Z,42.50
2022-08-05T18:50:12.741Z,42.30
2022-08-05T18:52:51.335Z,42.50
2022-08-05T18:55:19.924Z,39.10
2022-08-05T18:57:52.710Z,42.00
2022-08-05T19:00:27.282Z,42.10
2022-08-05T19:03:03.709Z,42.10
2022-08-05T19:06:13.288Z,43.70
2022-08-05T19:08:30.611Z,42.30
2022-08-05T19:11:04.922Z,44.80
2022-08-05T19:13:36.708Z,42.50
2022-08-05T19:16:25.281Z,42.50
2022-08-05T19:18:58.566Z,42.50
2022-08-05T19:21:34.265Z,42.60
2022-08-05T19:24:05.723Z,44.50
2022-08-05T19:26:54.733Z,42.70
2022-08-05T19:29:35.523Z,43.70
2022-08-05T19:32:05.043Z,44.40
2022-08-05T19:34:37.850Z,43.30
2022-08-05T19:37:06.549Z,43.20
2022-08-05T19:39:45.514Z,44.70
2022-08-05T19:42:35.044Z,45.40
2022-08-05T19:45:06.054Z,43.80
2022-08-05T19:47:34.410Z,44.50
2022-08-05T19:50:07.872Z,45.20
2022-08-05T19:52:40.686Z,44.00
2022-08-05T19:56:15.164Z,43.80
2022-08-05T19:58:14.659Z,43.80
2022-08-05T20:00:46.699Z,45.50
2022-08-05T20:03:14.832Z,44.20
2022-08-05T20:05:51.307Z,44.50
2022-08-05T20:08:19.758Z,46.60
2022-08-05T20:10:49.771Z,44.60
2022-08-05T20:13:30.205Z,44.70
2022-08-05T20:16:11.499Z,45.20
2022-08-05T20:18:40.043Z,45.60
2022-08-05T20:21:11.307Z,44.90
2022-08-05T20:23:50.834Z,45.20
2022-08-05T20:26:20.344Z,46.60
2022-08-05T20:28:50.320Z,45.60
2022-08-05T20:31:21.647Z,46.50
2022-08-05T20:33:51.349Z,45.70
2022-08-05T20:36:25.938Z,47.10
2022-08-05T20:38:57.734Z,48.30
2022-08-05T20:41:44.358Z,46.10
2022-08-05T20:44:29.720Z,46.60
2022-08-05T20:47:01.145Z,46.60
2022-08-05T20:49:29.347Z,46.70
2022-08-05T20:52:01.144Z,48.70
2022-08-05T20:54:43.648Z,47.00
2022-08-05T20:57:41.876Z,49.30
2022-08-05T21:00:21.200Z,47.10
2022-08-05T21:03:00.025Z,48.30
2022-08-05T21:05:48.098Z,47.90
2022-08-05T21:08:19.381Z,48.00
2022-08-05T21:10:48.962Z,48.20
2022-08-05T21:13:26.551Z,48.00
2022-08-05T21:16:05.543Z,48.00
2022-08-05T21:18:34.132Z,48.20
2022-08-05T21:21:03.879Z,48.20
2022-08-05T21:23:37.223Z,48.30
2022-08-05T21:26:12.296Z,48.40
2022-08-05T21:28:48.055Z,48.70
2022-08-05T21:31:20.978Z,48.80
2022-08-05T21:33:51.217Z,49.00
2022-08-05T21:36:30.064Z,48.80
2022-08-05T21:39:02.149Z,49.70
2022-08-05T21:41:33.705Z,49.00
2022-08-05T21:44:03.780Z,49.20
2022-08-05T21:46:34.517Z,52.50
2022-08-05T21:49:02.987Z,51.00
2022-08-05T21:52:22.403Z,50.70
2022-08-05T21:54:28.091Z,50.60
2022-08-05T21:57:29.196Z,50.40
2022-08-05T22:00:06.130Z,50.40
2022-08-05T22:02:35.035Z,50.40
2022-08-05T22:05:04.400Z,50.30
2022-08-05T22:07:40.508Z,50.70
2022-08-05T22:10:27.065Z,50.70
2022-08-05T22:12:57.141Z,50.70
2022-08-05T22:16:00.596Z,51.00
2022-08-05T22:18:14.776Z,51.00
2022-08-05T22:20:42.966Z,51.20
2022-08-05T22:24:00.935Z,51.30
2022-08-05T22:26:36.363Z,51.60
2022-08-05T22:29:04.360Z,51.60
2022-08-05T22:31:44.861Z,51.50
2022-08-05T22:34:25.536Z,51.80
2022-08-05T22:36:57.023Z,51.90
2022-08-05T22:39:32.563Z,51.90
2022-08-05T22:42:09.564Z,52.30
2022-08-05T22:44:39.829Z,52.70
2022-08-05T22:47:08.320Z,54.00
2022-08-05T22:50:17.702Z,53.60
2022-08-05T22:52:32.794Z,54.50
2022-08-05T22:55:02.672Z,54.20
2022-08-05T22:57:34.175Z,54.10
2022-08-05T23:00:07.880Z,54.00
2022-08-05T23:02:39.823Z,54.20
2022-08-05T23:05:14.359Z,53.90
2022-08-05T23:07:48.651Z,53.90
2022-08-05T23:10:19.692Z,54.00
2022-08-05T23:12:51.327Z,54.20
2022-08-05T23:15:20.227Z,54.60
2022-08-05T23:18:01.263Z,54.50
2022-08-05T23:20:31.532Z,54.60
2022-08-05T23:23:00.259Z,55.20
2022-08-05T23:25:51.589Z,56.80
2022-08-05T23:28:20.832Z,54.90
2022-08-05T23:30:53.107Z,55.00
2022-08-05T23:34:03.155Z,55.10
2022-08-05T23:36:10.837Z,55.40
2022-08-05T23:38:41.856Z,55.10
2022-08-05T23:41:11.123Z,55.30
2022-08-05T23:44:04.698Z,55.10
2022-08-05T23:46:28.967Z,57.40
2022-08-05T23:48:59.847Z,57.50
2022-08-05T23:51:52.907Z,57.20
2022-08-05T23:54:25.485Z,58.80
2022-08-05T23:56:55.310Z,58.20
2022-08-05T23:59:27.586Z,58.00
